STW2948 EGLC-EICK
Flight info
| Callsign | STW2948 |
|---|---|
| Flight time | 1h 4m |
| Altitude | 36000 |
| Route | SOQQA M87 EKNIV DCT LAVRI DCT ODVIK DCT ROKKE DCT NOVMA DCT SAM N19 ADKIK DCT FONZU DCT PAVLO DCT CANZI L38 SAMON DCT ERTER ERTER1G |
| Aircraft | E190/M-SDE3GILORVW/S |
Departure
| Time | 2026-04-27 13:55 |
|---|---|
| Airport | London City Airport (EGLC) |
Arrival
| Time | 2026-04-27 14:59 |
|---|---|
| Airport | Cork International Airport (EICK) |
| Time | Latitude | Longitude | Altitude | Speed | Heading |
|---|---|---|---|---|---|
| 2026-04-27 13:30 | 51.50406 | 0.05199 | 24 ft | 0 kts | 323° |
| 2026-04-27 13:50 | 51.50407 | 0.05199 | 24 ft | 0 kts | 323° |
| 2026-04-27 13:50 | 51.50412 | 0.05196 | 24 ft | 1 kts | 342° |
| 2026-04-27 13:50 | 51.50426 | 0.05199 | 24 ft | 5 kts | 3° |
| 2026-04-27 13:51 | 51.50448 | 0.05161 | 28 ft | 6 kts | 287° |
| 2026-04-27 13:51 | 51.50453 | 0.05074 | 24 ft | 10 kts | 279° |
| 2026-04-27 13:51 | 51.50463 | 0.04959 | 26 ft | 10 kts | 274° |
| 2026-04-27 13:51 | 51.50466 | 0.04836 | 24 ft | 12 kts | 272° |
| 2026-04-27 13:52 | 51.50471 | 0.04702 | 24 ft | 13 kts | 273° |
| 2026-04-27 13:52 | 51.50477 | 0.04545 | 26 ft | 15 kts | 274° |
| 2026-04-27 13:52 | 51.50491 | 0.04458 | 26 ft | 0 kts | 309° |
| 2026-04-27 13:52 | 51.50491 | 0.04457 | 26 ft | 0 kts | 310° |
| 2026-04-27 13:53 | 51.50499 | 0.04450 | 25 ft | 3 kts | 329° |
| 2026-04-27 13:53 | 51.50535 | 0.04445 | 24 ft | 6 kts | 5° |
| 2026-04-27 13:53 | 51.50554 | 0.04493 | 24 ft | 6 kts | 88° |
| 2026-04-27 13:54 | 51.50553 | 0.04520 | 24 ft | 0 kts | 93° |
| 2026-04-27 13:54 | 51.50543 | 0.04850 | 24 ft | 67 kts | 93° |
| 2026-04-27 13:54 | 51.50510 | 0.05964 | 28 ft | 131 kts | 91° |
| 2026-04-27 13:54 | 51.50463 | 0.07569 | 461 ft | 154 kts | 90° |
| 2026-04-27 13:55 | 51.50411 | 0.09404 | 1165 ft | 172 kts | 89° |
| 2026-04-27 13:55 | 51.50401 | 0.11399 | 2029 ft | 183 kts | 89° |
| 2026-04-27 13:55 | 51.50593 | 0.13438 | 2916 ft | 193 kts | 62° |
| 2026-04-27 13:55 | 51.51563 | 0.14825 | 3966 ft | 184 kts | 18° |
| 2026-04-27 13:56 | 51.52891 | 0.15225 | 4899 ft | 203 kts | 6° |
| 2026-04-27 13:56 | 51.54294 | 0.15600 | 5940 ft | 208 kts | 13° |
| 2026-04-27 13:56 | 51.55648 | 0.16628 | 6838 ft | 225 kts | 37° |
| 2026-04-27 13:56 | 51.56643 | 0.18703 | 7588 ft | 247 kts | 65° |
| 2026-04-27 13:57 | 51.57207 | 0.21339 | 8592 ft | 257 kts | 68° |
| 2026-04-27 13:57 | 51.57870 | 0.24171 | 9299 ft | 286 kts | 68° |
| 2026-04-27 13:57 | 51.58526 | 0.27312 | 10378 ft | 299 kts | 71° |
| 2026-04-27 13:57 | 51.59174 | 0.30650 | 11133 ft | 323 kts | 72° |
| 2026-04-27 13:58 | 51.59814 | 0.34156 | 12194 ft | 332 kts | 72° |
| 2026-04-27 13:58 | 51.60431 | 0.37739 | 13374 ft | 338 kts | 76° |
| 2026-04-27 13:58 | 51.60560 | 0.41554 | 14470 ft | 345 kts | 96° |
| 2026-04-27 13:58 | 51.60194 | 0.45385 | 15497 ft | 351 kts | 100° |
| 2026-04-27 13:59 | 51.59749 | 0.49289 | 16470 ft | 357 kts | 100° |
| 2026-04-27 13:59 | 51.59180 | 0.53190 | 17371 ft | 364 kts | 111° |
| 2026-04-27 13:59 | 51.57828 | 0.56590 | 18282 ft | 367 kts | 136° |
| 2026-04-27 13:59 | 51.55721 | 0.58905 | 19125 ft | 368 kts | 159° |
| 2026-04-27 14:00 | 51.53236 | 0.59997 | 19896 ft | 370 kts | 172° |
| 2026-04-27 14:00 | 51.50695 | 0.60630 | 20636 ft | 376 kts | 174° |
| 2026-04-27 14:00 | 51.48075 | 0.61198 | 21369 ft | 381 kts | 174° |
| 2026-04-27 14:00 | 51.45446 | 0.61757 | 22096 ft | 386 kts | 175° |
| 2026-04-27 14:01 | 51.42748 | 0.62282 | 22826 ft | 391 kts | 176° |
| 2026-04-27 14:01 | 51.40015 | 0.62384 | 23482 ft | 392 kts | 189° |
| 2026-04-27 14:01 | 51.37337 | 0.61664 | 24126 ft | 394 kts | 194° |
| 2026-04-27 14:01 | 51.34626 | 0.60748 | 24792 ft | 397 kts | 195° |
| 2026-04-27 14:02 | 51.31937 | 0.59851 | 25383 ft | 400 kts | 194° |
| 2026-04-27 14:02 | 51.29205 | 0.58967 | 25987 ft | 403 kts | 194° |
| 2026-04-27 14:02 | 51.26473 | 0.57897 | 26555 ft | 402 kts | 204° |
| 2026-04-27 14:02 | 51.24016 | 0.55905 | 27141 ft | 400 kts | 214° |
| 2026-04-27 14:03 | 51.21628 | 0.53596 | 27691 ft | 402 kts | 215° |
| 2026-04-27 14:03 | 51.19243 | 0.51228 | 28218 ft | 404 kts | 217° |
| 2026-04-27 14:03 | 51.17113 | 0.48338 | 28695 ft | 400 kts | 233° |
| 2026-04-27 14:03 | 51.15714 | 0.44572 | 29199 ft | 396 kts | 251° |
| 2026-04-27 14:04 | 51.14759 | 0.40416 | 29770 ft | 395 kts | 253° |
| 2026-04-27 14:04 | 51.13846 | 0.36285 | 30246 ft | 398 kts | 253° |
| 2026-04-27 14:04 | 51.12946 | 0.32149 | 30663 ft | 400 kts | 253° |
| 2026-04-27 14:04 | 51.12025 | 0.27899 | 30936 ft | 406 kts | 253° |
| 2026-04-27 14:05 | 51.11106 | 0.23647 | 31372 ft | 406 kts | 253° |
| 2026-04-27 14:05 | 51.10188 | 0.19401 | 31617 ft | 411 kts | 253° |
| 2026-04-27 14:05 | 51.09256 | 0.15072 | 32022 ft | 412 kts | 253° |
| 2026-04-27 14:05 | 51.08326 | 0.10744 | 32215 ft | 417 kts | 253° |
| 2026-04-27 14:06 | 51.07398 | 0.06397 | 32619 ft | 416 kts | 255° |
| 2026-04-27 14:06 | 51.06882 | 0.01906 | 33011 ft | 413 kts | 267° |
| 2026-04-27 14:06 | 51.06683 | -0.02654 | 33484 ft | 411 kts | 268° |
| 2026-04-27 14:06 | 51.06513 | -0.07165 | 33874 ft | 411 kts | 268° |
| 2026-04-27 14:07 | 51.06342 | -0.11678 | 34253 ft | 411 kts | 268° |
| 2026-04-27 14:07 | 51.06163 | -0.16233 | 34600 ft | 411 kts | 268° |
| 2026-04-27 14:07 | 51.05981 | -0.20739 | 34931 ft | 410 kts | 268° |
| 2026-04-27 14:07 | 51.05796 | -0.25278 | 35255 ft | 410 kts | 268° |
| 2026-04-27 14:08 | 51.05613 | -0.29779 | 35571 ft | 409 kts | 268° |
| 2026-04-27 14:08 | 51.05427 | -0.34277 | 35895 ft | 409 kts | 268° |
| 2026-04-27 14:08 | 51.05301 | -0.37292 | 36115 ft | 408 kts | 268° |
| 2026-04-27 14:08 | 51.05112 | -0.41806 | 36275 ft | 412 kts | 268° |
| 2026-04-27 14:09 | 51.04921 | -0.46369 | 36288 ft | 419 kts | 268° |
| 2026-04-27 14:09 | 51.04525 | -0.55759 | 36326 ft | 432 kts | 268° |
| 2026-04-27 14:10 | 51.04104 | -0.65455 | 36279 ft | 446 kts | 267° |
| 2026-04-27 14:10 | 51.03613 | -0.75361 | 36271 ft | 458 kts | 262° |
| 2026-04-27 14:11 | 51.02323 | -0.85489 | 35452 ft | 479 kts | 259° |
| 2026-04-27 14:11 | 51.01607 | -0.90683 | 33571 ft | 489 kts | 260° |
| 2026-04-27 14:11 | 51.00864 | -0.96033 | 32069 ft | 495 kts | 261° |
| 2026-04-27 14:11 | 51.00131 | -1.01352 | 31181 ft | 498 kts | 261° |
| 2026-04-27 14:12 | 50.99393 | -1.06723 | 30717 ft | 500 kts | 262° |
| 2026-04-27 14:12 | 50.98657 | -1.12077 | 30593 ft | 500 kts | 262° |
| 2026-04-27 14:12 | 50.97912 | -1.17481 | 30611 ft | 500 kts | 262° |
| 2026-04-27 14:13 | 50.96411 | -1.28313 | 30629 ft | 502 kts | 262° |
| 2026-04-27 14:13 | 50.94917 | -1.39155 | 30636 ft | 503 kts | 263° |
| 2026-04-27 14:14 | 50.93551 | -1.50039 | 30641 ft | 505 kts | 263° |
| 2026-04-27 14:14 | 50.92164 | -1.60918 | 30640 ft | 506 kts | 263° |
| 2026-04-27 14:15 | 50.90743 | -1.71877 | 30649 ft | 508 kts | 263° |
| 2026-04-27 14:15 | 50.89310 | -1.82817 | 30649 ft | 510 kts | 263° |
| 2026-04-27 14:16 | 50.87864 | -1.93796 | 30469 ft | 502 kts | 263° |
| 2026-04-27 14:16 | 50.87159 | -1.99067 | 30137 ft | 480 kts | 263° |
| 2026-04-27 14:16 | 50.86480 | -2.04110 | 30084 ft | 455 kts | 263° |
| 2026-04-27 14:16 | 50.85839 | -2.08907 | 30022 ft | 433 kts | 264° |
| 2026-04-27 14:17 | 50.85231 | -2.13477 | 29974 ft | 426 kts | 264° |
| 2026-04-27 14:17 | 50.84005 | -2.22756 | 29992 ft | 437 kts | 264° |
| 2026-04-27 14:17 | 50.83375 | -2.27425 | 30703 ft | 431 kts | 264° |
| 2026-04-27 14:18 | 50.82745 | -2.32077 | 31147 ft | 432 kts | 263° |
| 2026-04-27 14:18 | 50.82115 | -2.36736 | 31479 ft | 434 kts | 263° |
| 2026-04-27 14:18 | 50.81482 | -2.41408 | 31742 ft | 438 kts | 263° |
| 2026-04-27 14:18 | 50.80841 | -2.46110 | 31992 ft | 442 kts | 262° |
| 2026-04-27 14:19 | 50.80184 | -2.50906 | 32223 ft | 446 kts | 262° |
| 2026-04-27 14:19 | 50.79710 | -2.55716 | 32424 ft | 443 kts | 272° |
| 2026-04-27 14:19 | 50.79746 | -2.60605 | 32696 ft | 442 kts | 277° |
| 2026-04-27 14:19 | 50.79890 | -2.65451 | 33034 ft | 442 kts | 277° |
| 2026-04-27 14:20 | 50.80019 | -2.70270 | 33403 ft | 441 kts | 276° |
| 2026-04-27 14:20 | 50.80140 | -2.75138 | 33809 ft | 439 kts | 276° |
| 2026-04-27 14:20 | 50.80255 | -2.79917 | 34227 ft | 437 kts | 276° |
| 2026-04-27 14:20 | 50.80366 | -2.84740 | 34573 ft | 436 kts | 275° |
| 2026-04-27 14:21 | 50.80472 | -2.89494 | 34876 ft | 435 kts | 275° |
| 2026-04-27 14:21 | 50.80576 | -2.94223 | 35178 ft | 434 kts | 275° |
| 2026-04-27 14:21 | 50.80679 | -2.99009 | 35469 ft | 433 kts | 275° |
| 2026-04-27 14:21 | 50.80783 | -3.03738 | 35742 ft | 432 kts | 275° |
| 2026-04-27 14:22 | 50.80887 | -3.08516 | 36013 ft | 431 kts | 275° |
| 2026-04-27 14:22 | 50.80985 | -3.13203 | 36361 ft | 423 kts | 274° |
| 2026-04-27 14:22 | 50.81078 | -3.17850 | 36388 ft | 427 kts | 274° |
| 2026-04-27 14:23 | 50.81264 | -3.27308 | 36286 ft | 431 kts | 274° |
| 2026-04-27 14:23 | 50.81440 | -3.36763 | 36266 ft | 431 kts | 274° |
| 2026-04-27 14:24 | 50.81607 | -3.46260 | 36267 ft | 432 kts | 274° |
| 2026-04-27 14:24 | 50.81768 | -3.55764 | 36270 ft | 433 kts | 274° |
| 2026-04-27 14:25 | 50.81922 | -3.65293 | 36266 ft | 434 kts | 274° |
| 2026-04-27 14:25 | 50.82066 | -3.74837 | 36274 ft | 434 kts | 274° |
| 2026-04-27 14:26 | 50.82203 | -3.84340 | 36277 ft | 435 kts | 274° |
| 2026-04-27 14:26 | 50.82399 | -3.93910 | 36292 ft | 434 kts | 278° |
| 2026-04-27 14:27 | 50.83078 | -4.03352 | 36293 ft | 434 kts | 279° |
| 2026-04-27 14:27 | 50.83724 | -4.12882 | 36297 ft | 435 kts | 279° |
| 2026-04-27 14:28 | 50.84327 | -4.22407 | 36293 ft | 435 kts | 279° |
| 2026-04-27 14:28 | 50.84916 | -4.31926 | 36292 ft | 436 kts | 279° |
| 2026-04-27 14:29 | 50.85496 | -4.41447 | 36304 ft | 436 kts | 279° |
| 2026-04-27 14:29 | 50.86068 | -4.50976 | 36300 ft | 437 kts | 279° |
| 2026-04-27 14:30 | 50.86633 | -4.60549 | 36308 ft | 437 kts | 279° |
| 2026-04-27 14:30 | 50.87195 | -4.70133 | 36307 ft | 437 kts | 279° |
| 2026-04-27 14:31 | 50.87745 | -4.79693 | 36313 ft | 438 kts | 279° |
| 2026-04-27 14:31 | 50.88291 | -4.89314 | 36317 ft | 438 kts | 279° |
| 2026-04-27 14:32 | 50.88829 | -4.98933 | 36319 ft | 439 kts | 279° |
| 2026-04-27 14:32 | 50.89361 | -5.08565 | 36319 ft | 439 kts | 279° |
| 2026-04-27 14:33 | 50.89889 | -5.18205 | 36318 ft | 440 kts | 279° |
| 2026-04-27 14:33 | 50.90415 | -5.27855 | 36319 ft | 440 kts | 279° |
| 2026-04-27 14:34 | 50.90930 | -5.37522 | 36323 ft | 440 kts | 279° |
| 2026-04-27 14:34 | 50.91440 | -5.47190 | 36325 ft | 441 kts | 279° |
| 2026-04-27 14:35 | 50.91948 | -5.56817 | 36326 ft | 441 kts | 279° |
| 2026-04-27 14:35 | 50.92452 | -5.66526 | 36328 ft | 442 kts | 279° |
| 2026-04-27 14:36 | 50.92947 | -5.76257 | 36334 ft | 442 kts | 279° |
| 2026-04-27 14:36 | 50.93432 | -5.85953 | 36334 ft | 443 kts | 278° |
| 2026-04-27 14:37 | 50.94027 | -5.95628 | 36342 ft | 441 kts | 282° |
| 2026-04-27 14:37 | 50.94851 | -6.05328 | 36165 ft | 445 kts | 282° |
| 2026-04-27 14:37 | 50.95258 | -6.10155 | 35837 ft | 444 kts | 282° |
| 2026-04-27 14:38 | 50.95668 | -6.15037 | 35352 ft | 448 kts | 282° |
| 2026-04-27 14:38 | 50.96077 | -6.19917 | 34730 ft | 451 kts | 283° |
| 2026-04-27 14:38 | 50.96493 | -6.24894 | 34053 ft | 452 kts | 283° |
| 2026-04-27 14:38 | 50.96899 | -6.29778 | 33524 ft | 449 kts | 283° |
| 2026-04-27 14:39 | 50.97308 | -6.34720 | 32890 ft | 449 kts | 283° |
| 2026-04-27 14:39 | 50.97712 | -6.39608 | 32301 ft | 450 kts | 284° |
| 2026-04-27 14:39 | 50.98116 | -6.44532 | 31718 ft | 451 kts | 284° |
| 2026-04-27 14:39 | 50.98521 | -6.49494 | 31095 ft | 452 kts | 284° |
| 2026-04-27 14:40 | 50.98917 | -6.54381 | 30525 ft | 452 kts | 284° |
| 2026-04-27 14:40 | 50.99319 | -6.59361 | 29893 ft | 452 kts | 284° |
| 2026-04-27 14:40 | 50.99714 | -6.64278 | 29305 ft | 454 kts | 283° |
| 2026-04-27 14:40 | 51.00115 | -6.69292 | 28723 ft | 453 kts | 283° |
| 2026-04-27 14:41 | 51.00503 | -6.74202 | 28094 ft | 451 kts | 283° |
| 2026-04-27 14:41 | 51.00891 | -6.79140 | 27517 ft | 446 kts | 283° |
| 2026-04-27 14:41 | 51.01268 | -6.83963 | 26926 ft | 442 kts | 283° |
| 2026-04-27 14:41 | 51.01647 | -6.88828 | 26348 ft | 438 kts | 283° |
| 2026-04-27 14:42 | 51.02099 | -6.93552 | 25781 ft | 429 kts | 290° |
| 2026-04-27 14:42 | 51.03191 | -6.97802 | 25248 ft | 413 kts | 308° |
| 2026-04-27 14:42 | 51.05049 | -7.01179 | 24737 ft | 399 kts | 322° |
| 2026-04-27 14:42 | 51.07089 | -7.04117 | 24169 ft | 397 kts | 323° |
| 2026-04-27 14:43 | 51.09134 | -7.07036 | 23617 ft | 394 kts | 323° |
| 2026-04-27 14:43 | 51.11162 | -7.09987 | 23133 ft | 390 kts | 322° |
| 2026-04-27 14:43 | 51.13146 | -7.12904 | 22613 ft | 388 kts | 322° |
| 2026-04-27 14:43 | 51.15106 | -7.15801 | 22103 ft | 386 kts | 322° |
| 2026-04-27 14:44 | 51.17083 | -7.18737 | 21587 ft | 384 kts | 321° |
| 2026-04-27 14:44 | 51.19014 | -7.21616 | 21090 ft | 381 kts | 321° |
| 2026-04-27 14:44 | 51.20923 | -7.24474 | 20581 ft | 378 kts | 321° |
| 2026-04-27 14:44 | 51.22843 | -7.27358 | 20084 ft | 376 kts | 321° |
| 2026-04-27 14:45 | 51.24745 | -7.30229 | 19583 ft | 373 kts | 320° |
| 2026-04-27 14:45 | 51.26600 | -7.33039 | 19100 ft | 371 kts | 320° |
| 2026-04-27 14:45 | 51.28473 | -7.35888 | 18588 ft | 369 kts | 320° |
| 2026-04-27 14:45 | 51.30311 | -7.38695 | 18104 ft | 365 kts | 320° |
| 2026-04-27 14:46 | 51.32095 | -7.41553 | 17629 ft | 365 kts | 313° |
| 2026-04-27 14:46 | 51.33531 | -7.44953 | 17165 ft | 367 kts | 304° |
| 2026-04-27 14:46 | 51.34799 | -7.48461 | 16654 ft | 365 kts | 304° |
| 2026-04-27 14:46 | 51.36078 | -7.51919 | 16185 ft | 362 kts | 304° |
| 2026-04-27 14:47 | 51.37370 | -7.55406 | 15697 ft | 360 kts | 303° |
| 2026-04-27 14:47 | 51.38631 | -7.58796 | 15230 ft | 357 kts | 303° |
| 2026-04-27 14:47 | 51.39890 | -7.62177 | 14755 ft | 347 kts | 303° |
| 2026-04-27 14:47 | 51.41120 | -7.65477 | 14276 ft | 339 kts | 303° |
| 2026-04-27 14:48 | 51.42303 | -7.68651 | 13836 ft | 330 kts | 303° |
| 2026-04-27 14:48 | 51.44591 | -7.74790 | 13001 ft | 313 kts | 303° |
| 2026-04-27 14:48 | 51.45700 | -7.77767 | 12585 ft | 307 kts | 303° |
| 2026-04-27 14:49 | 51.46786 | -7.80686 | 12175 ft | 301 kts | 303° |
| 2026-04-27 14:49 | 51.47842 | -7.83526 | 11787 ft | 296 kts | 303° |
| 2026-04-27 14:49 | 51.48893 | -7.86352 | 11390 ft | 291 kts | 303° |
| 2026-04-27 14:49 | 51.49917 | -7.89108 | 11009 ft | 287 kts | 303° |
| 2026-04-27 14:50 | 51.50936 | -7.91855 | 10632 ft | 283 kts | 303° |
| 2026-04-27 14:50 | 51.51929 | -7.94534 | 10264 ft | 280 kts | 303° |
| 2026-04-27 14:50 | 51.52923 | -7.97217 | 9880 ft | 276 kts | 303° |
| 2026-04-27 14:50 | 51.53888 | -7.99823 | 9533 ft | 271 kts | 303° |
| 2026-04-27 14:51 | 51.54838 | -8.02393 | 9174 ft | 267 kts | 303° |
| 2026-04-27 14:51 | 51.55783 | -8.04950 | 8821 ft | 264 kts | 303° |
| 2026-04-27 14:51 | 51.56689 | -8.07526 | 8460 ft | 263 kts | 298° |
| 2026-04-27 14:51 | 51.57156 | -8.09321 | 8229 ft | 262 kts | 294° |
| 2026-04-27 14:52 | 51.58046 | -8.12911 | 7767 ft | 259 kts | 295° |
| 2026-04-27 14:52 | 51.58728 | -8.15573 | 7420 ft | 253 kts | 295° |
| 2026-04-27 14:52 | 51.59391 | -8.18143 | 7063 ft | 243 kts | 295° |
| 2026-04-27 14:52 | 51.60021 | -8.20574 | 6763 ft | 235 kts | 296° |
| 2026-04-27 14:53 | 51.60656 | -8.22994 | 6487 ft | 233 kts | 296° |
| 2026-04-27 14:53 | 51.61277 | -8.25366 | 6186 ft | 232 kts | 296° |
| 2026-04-27 14:53 | 51.61910 | -8.27779 | 5874 ft | 232 kts | 296° |
| 2026-04-27 14:53 | 51.62537 | -8.30175 | 5572 ft | 232 kts | 295° |
| 2026-04-27 14:54 | 51.63159 | -8.32544 | 5264 ft | 232 kts | 295° |
| 2026-04-27 14:54 | 51.63790 | -8.34952 | 4775 ft | 237 kts | 295° |
| 2026-04-27 14:54 | 51.64633 | -8.37199 | 4200 ft | 229 kts | 317° |
| 2026-04-27 14:54 | 51.65912 | -8.38490 | 3832 ft | 216 kts | 342° |
| 2026-04-27 14:55 | 51.67343 | -8.39130 | 3491 ft | 211 kts | 344° |
| 2026-04-27 14:55 | 51.68701 | -8.39957 | 3218 ft | 204 kts | 338° |
| 2026-04-27 14:55 | 51.70000 | -8.40797 | 2995 ft | 195 kts | 342° |
| 2026-04-27 14:55 | 51.71206 | -8.41465 | 3043 ft | 182 kts | 342° |
| 2026-04-27 14:56 | 51.72413 | -8.42172 | 2802 ft | 184 kts | 341° |
| 2026-04-27 14:56 | 51.73566 | -8.42871 | 2552 ft | 168 kts | 340° |
| 2026-04-27 14:56 | 51.74626 | -8.43493 | 2327 ft | 158 kts | 341° |
| 2026-04-27 14:56 | 51.75618 | -8.44071 | 2156 ft | 143 kts | 342° |
| 2026-04-27 14:57 | 51.76502 | -8.44593 | 1930 ft | 130 kts | 342° |
| 2026-04-27 14:57 | 51.77343 | -8.45091 | 1758 ft | 127 kts | 341° |
| 2026-04-27 14:57 | 51.78174 | -8.45581 | 1562 ft | 125 kts | 341° |
| 2026-04-27 14:57 | 51.78983 | -8.46065 | 1434 ft | 126 kts | 343° |
| 2026-04-27 14:58 | 51.79805 | -8.46556 | 1239 ft | 124 kts | 342° |
| 2026-04-27 14:58 | 51.80616 | -8.47036 | 1087 ft | 125 kts | 343° |
| 2026-04-27 14:58 | 51.81427 | -8.47515 | 902 ft | 125 kts | 342° |
| 2026-04-27 14:58 | 51.82250 | -8.48001 | 733 ft | 127 kts | 342° |
| 2026-04-27 14:59 | 51.83079 | -8.48495 | 533 ft | 124 kts | 343° |
| 2026-04-27 14:59 | 51.83835 | -8.48935 | 468 ft | 101 kts | 340° |
| 2026-04-27 14:59 | 51.84342 | -8.49233 | 478 ft | 59 kts | 340° |
| 2026-04-27 14:59 | 51.84626 | -8.49402 | 484 ft | 30 kts | 340° |
| 2026-04-27 15:00 | 51.84749 | -8.49458 | 490 ft | 14 kts | 13° |
| 2026-04-27 15:00 | 51.84795 | -8.49342 | 492 ft | 11 kts | 69° |
| 2026-04-27 15:00 | 51.84794 | -8.49259 | 496 ft | 5 kts | 108° |
| 2026-04-27 15:00 | 51.84776 | -8.49217 | 501 ft | 5 kts | 136° |
| 2026-04-27 15:01 | 51.84725 | -8.49178 | 501 ft | 10 kts | 159° |
| 2026-04-27 15:01 | 51.84690 | -8.49148 | 501 ft | 3 kts | 123° |
| 2026-04-27 15:01 | 51.84693 | -8.49113 | 501 ft | 5 kts | 73° |
| 2026-04-27 15:01 | 51.84697 | -8.49081 | 502 ft | 1 kts | 99° |
| 2026-04-27 15:02 | 51.84689 | -8.49070 | 502 ft | 2 kts | 144° |
| 2026-04-27 15:02 | 51.84682 | -8.49067 | 501 ft | 0 kts | 159° |